sensor_id;sensor_type;location;lat;lon;timestamp;P1;durP1;ratioP1;P2;durP2;ratioP2
70796;SDS011;63842;52.144;5.360;2023-03-14T00:00:51;15.68;;;4.75;;
70796;SDS011;63842;52.144;5.360;2023-03-14T00:03:18;14.00;;;3.75;;
70796;SDS011;63842;52.144;5.360;2023-03-14T00:05:46;17.77;;;4.10;;
70796;SDS011;63842;52.144;5.360;2023-03-14T00:08:13;19.35;;;4.40;;
70796;SDS011;63842;52.144;5.360;2023-03-14T00:10:40;15.95;;;4.15;;
70796;SDS011;63842;52.144;5.360;2023-03-14T00:13:07;18.00;;;4.25;;
70796;SDS011;63842;52.144;5.360;2023-03-14T00:15:35;16.00;;;3.83;;
70796;SDS011;63842;52.144;5.360;2023-03-14T00:18:02;20.00;;;3.78;;
70796;SDS011;63842;52.144;5.360;2023-03-14T00:20:29;16.70;;;4.15;;
70796;SDS011;63842;52.144;5.360;2023-03-14T00:22:57;17.77;;;3.83;;
70796;SDS011;63842;52.144;5.360;2023-03-14T00:25:24;15.77;;;3.35;;
70796;SDS011;63842;52.144;5.360;2023-03-14T00:27:51;15.02;;;3.70;;
70796;SDS011;63842;52.144;5.360;2023-03-14T00:30:19;16.85;;;3.55;;
70796;SDS011;63842;52.144;5.360;2023-03-14T00:32:46;16.67;;;3.05;;
70796;SDS011;63842;52.144;5.360;2023-03-14T00:35:13;15.45;;;3.28;;
70796;SDS011;63842;52.144;5.360;2023-03-14T00:37:41;19.05;;;3.42;;
70796;SDS011;63842;52.144;5.360;2023-03-14T00:40:08;17.15;;;3.47;;
70796;SDS011;63842;52.144;5.360;2023-03-14T00:42:36;14.80;;;3.10;;
70796;SDS011;63842;52.144;5.360;2023-03-14T00:45:03;16.83;;;3.13;;
70796;SDS011;63842;52.144;5.360;2023-03-14T00:47:32;14.93;;;2.58;;
70796;SDS011;63842;52.144;5.360;2023-03-14T00:50:00;16.00;;;2.70;;
70796;SDS011;63842;52.144;5.360;2023-03-14T00:52:27;14.70;;;2.58;;
70796;SDS011;63842;52.144;5.360;2023-03-14T00:54:54;13.27;;;2.08;;
70796;SDS011;63842;52.144;5.360;2023-03-14T00:57:22;12.90;;;2.33;;
70796;SDS011;63842;52.144;5.360;2023-03-14T00:59:50;10.20;;;2.08;;
70796;SDS011;63842;52.144;5.360;2023-03-14T01:02:17;7.18;;;1.83;;
70796;SDS011;63842;52.144;5.360;2023-03-14T01:04:47;13.00;;;2.35;;
70796;SDS011;63842;52.144;5.360;2023-03-14T01:07:15;12.18;;;1.85;;
70796;SDS011;63842;52.144;5.360;2023-03-14T01:09:42;9.65;;;1.90;;
70796;SDS011;63842;52.144;5.360;2023-03-14T01:12:09;14.82;;;1.83;;
70796;SDS011;63842;52.144;5.360;2023-03-14T01:14:36;8.98;;;1.95;;
70796;SDS011;63842;52.144;5.360;2023-03-14T01:17:04;11.75;;;1.85;;
70796;SDS011;63842;52.144;5.360;2023-03-14T01:19:31;8.52;;;1.90;;
70796;SDS011;63842;52.144;5.360;2023-03-14T01:21:58;10.27;;;2.05;;
70796;SDS011;63842;52.144;5.360;2023-03-14T01:24:26;8.60;;;1.67;;
70796;SDS011;63842;52.144;5.360;2023-03-14T01:26:53;7.15;;;1.90;;
70796;SDS011;63842;52.144;5.360;2023-03-14T01:29:21;10.27;;;1.95;;
70796;SDS011;63842;52.144;5.360;2023-03-14T01:31:49;12.27;;;2.08;;
70796;SDS011;63842;52.144;5.360;2023-03-14T01:34:16;13.07;;;2.00;;
70796;SDS011;63842;52.144;5.360;2023-03-14T01:36:44;7.70;;;1.95;;
70796;SDS011;63842;52.144;5.360;2023-03-14T01:39:11;12.00;;;2.00;;
70796;SDS011;63842;52.144;5.360;2023-03-14T01:41:39;10.23;;;2.00;;
70796;SDS011;63842;52.144;5.360;2023-03-14T01:44:10;6.65;;;2.00;;
70796;SDS011;63842;52.144;5.360;2023-03-14T01:46:39;9.07;;;1.95;;
70796;SDS011;63842;52.144;5.360;2023-03-14T01:54:30;9.07;;;1.90;;
70796;SDS011;63842;52.144;5.360;2023-03-14T01:59:29;9.48;;;1.90;;
70796;SDS011;63842;52.144;5.360;2023-03-14T02:01:57;8.75;;;1.70;;
70796;SDS011;63842;52.144;5.360;2023-03-14T02:04:28;7.88;;;1.73;;
70796;SDS011;63842;52.144;5.360;2023-03-14T02:06:59;7.68;;;1.55;;
70796;SDS011;63842;52.144;5.360;2023-03-14T02:09:31;9.50;;;1.60;;
70796;SDS011;63842;52.144;5.360;2023-03-14T02:11:59;7.97;;;1.58;;
70796;SDS011;63842;52.144;5.360;2023-03-14T02:14:52;9.63;;;1.95;;
70796;SDS011;63842;52.144;5.360;2023-03-14T02:17:24;10.45;;;1.38;;
70796;SDS011;63842;52.144;5.360;2023-03-14T02:20:33;7.95;;;1.40;;
70796;SDS011;63842;52.144;5.360;2023-03-14T02:23:01;9.52;;;1.35;;
70796;SDS011;63842;52.144;5.360;2023-03-14T02:25:48;8.43;;;1.48;;
70796;SDS011;63842;52.144;5.360;2023-03-14T02:28:18;7.60;;;1.45;;
70796;SDS011;63842;52.144;5.360;2023-03-14T02:30:48;9.20;;;1.63;;
70796;SDS011;63842;52.144;5.360;2023-03-14T02:33:17;5.93;;;1.40;;
70796;SDS011;63842;52.144;5.360;2023-03-14T02:38:15;8.10;;;1.52;;
70796;SDS011;63842;52.144;5.360;2023-03-14T02:40:45;6.75;;;1.58;;
70796;SDS011;63842;52.144;5.360;2023-03-14T02:43:12;7.75;;;1.23;;
70796;SDS011;63842;52.144;5.360;2023-03-14T02:45:47;8.75;;;1.55;;
70796;SDS011;63842;52.144;5.360;2023-03-14T02:48:18;8.77;;;1.27;;
70796;SDS011;63842;52.144;5.360;2023-03-14T02:50:47;6.82;;;1.33;;
70796;SDS011;63842;52.144;5.360;2023-03-14T02:53:16;9.52;;;1.45;;
70796;SDS011;63842;52.144;5.360;2023-03-14T02:55:45;7.68;;;1.85;;
70796;SDS011;63842;52.144;5.360;2023-03-14T02:58:15;8.15;;;1.42;;
70796;SDS011;63842;52.144;5.360;2023-03-14T03:00:44;9.02;;;1.52;;
70796;SDS011;63842;52.144;5.360;2023-03-14T03:03:11;9.27;;;1.73;;
70796;SDS011;63842;52.144;5.360;2023-03-14T03:05:39;8.35;;;1.63;;
70796;SDS011;63842;52.144;5.360;2023-03-14T03:08:07;9.07;;;1.58;;
70796;SDS011;63842;52.144;5.360;2023-03-14T03:10:35;9.38;;;1.73;;
70796;SDS011;63842;52.144;5.360;2023-03-14T03:13:06;6.95;;;1.65;;
70796;SDS011;63842;52.144;5.360;2023-03-14T03:15:33;10.10;;;2.10;;
70796;SDS011;63842;52.144;5.360;2023-03-14T03:18:01;12.05;;;2.55;;
70796;SDS011;63842;52.144;5.360;2023-03-14T03:20:28;8.40;;;1.90;;
70796;SDS011;63842;52.144;5.360;2023-03-14T03:22:55;10.77;;;1.70;;
70796;SDS011;63842;52.144;5.360;2023-03-14T03:25:22;10.48;;;1.80;;
70796;SDS011;63842;52.144;5.360;2023-03-14T03:27:50;14.27;;;2.58;;
70796;SDS011;63842;52.144;5.360;2023-03-14T03:30:18;9.25;;;2.97;;
70796;SDS011;63842;52.144;5.360;2023-03-14T03:32:46;10.00;;;2.45;;
70796;SDS011;63842;52.144;5.360;2023-03-14T03:35:13;8.18;;;1.83;;
70796;SDS011;63842;52.144;5.360;2023-03-14T03:37:41;9.55;;;1.95;;
70796;SDS011;63842;52.144;5.360;2023-03-14T03:40:09;9.55;;;2.05;;
70796;SDS011;63842;52.144;5.360;2023-03-14T03:42:37;8.93;;;2.03;;
70796;SDS011;63842;52.144;5.360;2023-03-14T03:45:07;7.10;;;1.77;;
70796;SDS011;63842;52.144;5.360;2023-03-14T03:47:40;10.02;;;1.70;;
70796;SDS011;63842;52.144;5.360;2023-03-14T03:50:08;12.57;;;2.47;;
70796;SDS011;63842;52.144;5.360;2023-03-14T03:52:35;8.15;;;1.77;;
70796;SDS011;63842;52.144;5.360;2023-03-14T03:55:02;10.70;;;2.05;;
70796;SDS011;63842;52.144;5.360;2023-03-14T03:57:30;12.13;;;2.20;;
70796;SDS011;63842;52.144;5.360;2023-03-14T03:59:57;9.80;;;1.85;;
70796;SDS011;63842;52.144;5.360;2023-03-14T04:02:24;8.38;;;1.83;;
70796;SDS011;63842;52.144;5.360;2023-03-14T04:04:53;10.30;;;2.00;;
70796;SDS011;63842;52.144;5.360;2023-03-14T04:07:20;11.73;;;1.98;;
70796;SDS011;63842;52.144;5.360;2023-03-14T04:09:48;11.27;;;1.88;;
70796;SDS011;63842;52.144;5.360;2023-03-14T04:12:31;12.45;;;1.88;;
70796;SDS011;63842;52.144;5.360;2023-03-14T04:15:04;9.90;;;1.88;;
70796;SDS011;63842;52.144;5.360;2023-03-14T04:17:32;8.30;;;1.95;;
70796;SDS011;63842;52.144;5.360;2023-03-14T04:20:00;9.50;;;2.00;;
70796;SDS011;63842;52.144;5.360;2023-03-14T04:22:33;8.75;;;1.52;;
70796;SDS011;63842;52.144;5.360;2023-03-14T04:25:00;7.57;;;1.73;;
70796;SDS011;63842;52.144;5.360;2023-03-14T04:27:33;7.43;;;1.50;;
70796;SDS011;63842;52.144;5.360;2023-03-14T04:30:02;11.35;;;1.60;;
70796;SDS011;63842;52.144;5.360;2023-03-14T04:33:01;9.32;;;2.00;;
70796;SDS011;63842;52.144;5.360;2023-03-14T04:35:32;5.43;;;1.83;;
70796;SDS011;63842;52.144;5.360;2023-03-14T04:38:04;12.32;;;2.50;;
70796;SDS011;63842;52.144;5.360;2023-03-14T04:40:33;15.15;;;2.13;;
70796;SDS011;63842;52.144;5.360;2023-03-14T04:43:03;12.45;;;1.80;;
70796;SDS011;63842;52.144;5.360;2023-03-14T04:45:31;9.63;;;1.80;;
70796;SDS011;63842;52.144;5.360;2023-03-14T04:48:00;9.30;;;1.98;;
70796;SDS011;63842;52.144;5.360;2023-03-14T04:50:28;12.23;;;1.95;;
70796;SDS011;63842;52.144;5.360;2023-03-14T04:52:55;7.13;;;1.60;;
70796;SDS011;63842;52.144;5.360;2023-03-14T04:55:23;7.50;;;1.77;;
70796;SDS011;63842;52.144;5.360;2023-03-14T04:57:53;8.32;;;1.95;;
70796;SDS011;63842;52.144;5.360;2023-03-14T05:00:21;10.70;;;1.98;;
70796;SDS011;63842;52.144;5.360;2023-03-14T05:03:15;9.30;;;2.30;;
70796;SDS011;63842;52.144;5.360;2023-03-14T05:06:03;6.60;;;1.83;;
70796;SDS011;63842;52.144;5.360;2023-03-14T05:08:37;11.00;;;2.00;;
70796;SDS011;63842;52.144;5.360;2023-03-14T05:11:19;9.32;;;2.10;;
70796;SDS011;63842;52.144;5.360;2023-03-14T05:13:46;6.15;;;1.67;;
70796;SDS011;63842;52.144;5.360;2023-03-14T05:16:32;10.70;;;2.10;;
70796;SDS011;63842;52.144;5.360;2023-03-14T05:19:25;8.55;;;2.05;;
70796;SDS011;63842;52.144;5.360;2023-03-14T05:22:11;8.48;;;2.08;;
70796;SDS011;63842;52.144;5.360;2023-03-14T05:25:01;7.30;;;1.90;;
70796;SDS011;63842;52.144;5.360;2023-03-14T05:27:58;9.77;;;2.15;;
70796;SDS011;63842;52.144;5.360;2023-03-14T05:30:45;10.98;;;2.33;;
70796;SDS011;63842;52.144;5.360;2023-03-14T05:33:33;8.00;;;2.22;;
70796;SDS011;63842;52.144;5.360;2023-03-14T05:36:26;8.93;;;2.33;;
70796;SDS011;63842;52.144;5.360;2023-03-14T05:39:03;7.85;;;2.08;;
70796;SDS011;63842;52.144;5.360;2023-03-14T05:41:58;8.90;;;2.10;;
70796;SDS011;63842;52.144;5.360;2023-03-14T05:44:58;8.45;;;1.80;;
70796;SDS011;63842;52.144;5.360;2023-03-14T05:47:58;9.65;;;2.22;;
70796;SDS011;63842;52.144;5.360;2023-03-14T05:50:48;9.50;;;2.10;;
70796;SDS011;63842;52.144;5.360;2023-03-14T05:53:38;11.40;;;2.42;;
70796;SDS011;63842;52.144;5.360;2023-03-14T05:56:24;9.90;;;2.05;;
70796;SDS011;63842;52.144;5.360;2023-03-14T05:59:03;7.43;;;2.22;;
70796;SDS011;63842;52.144;5.360;2023-03-14T06:01:42;6.93;;;2.05;;
70796;SDS011;63842;52.144;5.360;2023-03-14T06:04:15;10.35;;;2.83;;
70796;SDS011;63842;52.144;5.360;2023-03-14T06:06:46;9.40;;;2.58;;
70796;SDS011;63842;52.144;5.360;2023-03-14T06:09:15;8.55;;;2.70;;
70796;SDS011;63842;52.144;5.360;2023-03-14T06:11:42;8.25;;;2.72;;
70796;SDS011;63842;52.144;5.360;2023-03-14T06:14:10;9.30;;;2.75;;
70796;SDS011;63842;52.144;5.360;2023-03-14T06:16:41;10.57;;;2.83;;
70796;SDS011;63842;52.144;5.360;2023-03-14T06:19:10;9.65;;;3.53;;
70796;SDS011;63842;52.144;5.360;2023-03-14T06:21:38;10.75;;;3.30;;
70796;SDS011;63842;52.144;5.360;2023-03-14T06:24:05;11.18;;;3.20;;
70796;SDS011;63842;52.144;5.360;2023-03-14T06:26:38;10.35;;;3.38;;
70796;SDS011;63842;52.144;5.360;2023-03-14T06:29:06;12.75;;;3.63;;
70796;SDS011;63842;52.144;5.360;2023-03-14T06:31:33;11.02;;;3.45;;
70796;SDS011;63842;52.144;5.360;2023-03-14T06:34:04;11.48;;;3.72;;
70796;SDS011;63842;52.144;5.360;2023-03-14T06:36:32;11.85;;;3.78;;
70796;SDS011;63842;52.144;5.360;2023-03-14T06:38:59;14.30;;;5.22;;
70796;SDS011;63842;52.144;5.360;2023-03-14T06:41:29;10.25;;;3.83;;
70796;SDS011;63842;52.144;5.360;2023-03-14T06:43:57;11.52;;;3.83;;
70796;SDS011;63842;52.144;5.360;2023-03-14T06:46:25;7.97;;;3.00;;
70796;SDS011;63842;52.144;5.360;2023-03-14T06:48:53;9.52;;;3.33;;
70796;SDS011;63842;52.144;5.360;2023-03-14T06:51:20;8.45;;;2.60;;
70796;SDS011;63842;52.144;5.360;2023-03-14T06:53:48;5.50;;;1.65;;
70796;SDS011;63842;52.144;5.360;2023-03-14T06:56:18;5.78;;;1.70;;
70796;SDS011;63842;52.144;5.360;2023-03-14T06:58:46;5.13;;;1.90;;
70796;SDS011;63842;52.144;5.360;2023-03-14T07:01:19;6.72;;;1.67;;
70796;SDS011;63842;52.144;5.360;2023-03-14T07:03:48;6.47;;;1.52;;
70796;SDS011;63842;52.144;5.360;2023-03-14T07:06:15;5.65;;;1.30;;
70796;SDS011;63842;52.144;5.360;2023-03-14T07:08:42;3.63;;;0.82;;
70796;SDS011;63842;52.144;5.360;2023-03-14T07:11:10;3.15;;;0.90;;
70796;SDS011;63842;52.144;5.360;2023-03-14T07:13:38;3.30;;;0.90;;
70796;SDS011;63842;52.144;5.360;2023-03-14T07:16:06;4.05;;;1.30;;
70796;SDS011;63842;52.144;5.360;2023-03-14T07:21:05;3.30;;;1.10;;
70796;SDS011;63842;52.144;5.360;2023-03-14T07:23:33;3.00;;;1.08;;
70796;SDS011;63842;52.144;5.360;2023-03-14T07:26:00;4.47;;;1.40;;
70796;SDS011;63842;52.144;5.360;2023-03-14T07:28:30;5.72;;;1.65;;
70796;SDS011;63842;52.144;5.360;2023-03-14T07:31:03;3.45;;;1.30;;
70796;SDS011;63842;52.144;5.360;2023-03-14T07:33:31;2.95;;;1.33;;
70796;SDS011;63842;52.144;5.360;2023-03-14T07:36:00;2.58;;;1.10;;
70796;SDS011;63842;52.144;5.360;2023-03-14T07:38:27;2.60;;;1.00;;
70796;SDS011;63842;52.144;5.360;2023-03-14T07:41:15;4.95;;;1.20;;
70796;SDS011;63842;52.144;5.360;2023-03-14T07:44:20;4.40;;;0.88;;
70796;SDS011;63842;52.144;5.360;2023-03-14T07:46:48;2.53;;;0.85;;
70796;SDS011;63842;52.144;5.360;2023-03-14T07:49:15;4.47;;;1.00;;
70796;SDS011;63842;52.144;5.360;2023-03-14T07:51:43;2.80;;;0.80;;
70796;SDS011;63842;52.144;5.360;2023-03-14T07:54:10;3.67;;;0.90;;
70796;SDS011;63842;52.144;5.360;2023-03-14T07:56:37;2.75;;;0.77;;
70796;SDS011;63842;52.144;5.360;2023-03-14T07:59:04;4.35;;;1.10;;
70796;SDS011;63842;52.144;5.360;2023-03-14T08:01:32;3.67;;;0.80;;
70796;SDS011;63842;52.144;5.360;2023-03-14T08:03:59;2.90;;;0.70;;
70796;SDS011;63842;52.144;5.360;2023-03-14T08:06:26;6.10;;;0.80;;
70796;SDS011;63842;52.144;5.360;2023-03-14T08:08:54;2.88;;;0.63;;
70796;SDS011;63842;52.144;5.360;2023-03-14T08:11:21;6.38;;;0.90;;
70796;SDS011;63842;52.144;5.360;2023-03-14T08:13:48;7.82;;;1.00;;
70796;SDS011;63842;52.144;5.360;2023-03-14T08:16:17;5.90;;;0.90;;
70796;SDS011;63842;52.144;5.360;2023-03-14T08:18:44;4.53;;;0.77;;
70796;SDS011;63842;52.144;5.360;2023-03-14T08:21:12;3.50;;;0.80;;
70796;SDS011;63842;52.144;5.360;2023-03-14T08:23:39;2.20;;;0.70;;
70796;SDS011;63842;52.144;5.360;2023-03-14T08:26:07;6.82;;;0.85;;
70796;SDS011;63842;52.144;5.360;2023-03-14T08:28:34;4.82;;;0.73;;
70796;SDS011;63842;52.144;5.360;2023-03-14T08:31:01;5.35;;;0.73;;
70796;SDS011;63842;52.144;5.360;2023-03-14T08:33:29;3.38;;;0.60;;
70796;SDS011;63842;52.144;5.360;2023-03-14T08:35:57;1.17;;;0.30;;
70796;SDS011;63842;52.144;5.360;2023-03-14T08:38:25;2.80;;;0.50;;
70796;SDS011;63842;52.144;5.360;2023-03-14T08:40:59;2.78;;;0.47;;
70796;SDS011;63842;52.144;5.360;2023-03-14T08:43:26;2.63;;;0.52;;
70796;SDS011;63842;52.144;5.360;2023-03-14T08:45:57;2.40;;;0.60;;
70796;SDS011;63842;52.144;5.360;2023-03-14T08:48:24;3.42;;;0.60;;
70796;SDS011;63842;52.144;5.360;2023-03-14T08:50:52;4.85;;;0.85;;
70796;SDS011;63842;52.144;5.360;2023-03-14T08:53:19;3.42;;;0.63;;
70796;SDS011;63842;52.144;5.360;2023-03-14T08:55:54;4.03;;;0.60;;
70796;SDS011;63842;52.144;5.360;2023-03-14T08:58:22;3.65;;;0.60;;
70796;SDS011;63842;52.144;5.360;2023-03-14T09:00:50;3.72;;;0.65;;
70796;SDS011;63842;52.144;5.360;2023-03-14T09:03:17;3.10;;;0.55;;
70796;SDS011;63842;52.144;5.360;2023-03-14T09:05:44;2.40;;;0.77;;
70796;SDS011;63842;52.144;5.360;2023-03-14T09:08:11;5.22;;;0.77;;
70796;SDS011;63842;52.144;5.360;2023-03-14T09:10:39;7.90;;;1.10;;
70796;SDS011;63842;52.144;5.360;2023-03-14T09:13:06;7.25;;;1.02;;
70796;SDS011;63842;52.144;5.360;2023-03-14T09:15:33;6.32;;;1.10;;
70796;SDS011;63842;52.144;5.360;2023-03-14T09:18:00;3.80;;;0.77;;
70796;SDS011;63842;52.144;5.360;2023-03-14T09:20:28;10.38;;;1.02;;
70796;SDS011;63842;52.144;5.360;2023-03-14T09:22:55;5.47;;;1.02;;
70796;SDS011;63842;52.144;5.360;2023-03-14T09:25:23;7.72;;;1.13;;
70796;SDS011;63842;52.144;5.360;2023-03-14T09:27:50;8.07;;;1.15;;
70796;SDS011;63842;52.144;5.360;2023-03-14T09:30:17;7.43;;;1.02;;
70796;SDS011;63842;52.144;5.360;2023-03-14T09:32:44;9.75;;;1.30;;
70796;SDS011;63842;52.144;5.360;2023-03-14T09:35:12;9.80;;;1.40;;
70796;SDS011;63842;52.144;5.360;2023-03-14T09:37:39;9.52;;;1.02;;
70796;SDS011;63842;52.144;5.360;2023-03-14T09:40:06;7.82;;;1.30;;
70796;SDS011;63842;52.144;5.360;2023-03-14T09:42:38;11.88;;;2.47;;
70796;SDS011;63842;52.144;5.360;2023-03-14T09:45:07;8.73;;;1.38;;
70796;SDS011;63842;52.144;5.360;2023-03-14T09:47:37;7.97;;;1.35;;
70796;SDS011;63842;52.144;5.360;2023-03-14T09:50:21;11.48;;;1.60;;
70796;SDS011;63842;52.144;5.360;2023-03-14T09:52:51;11.75;;;1.63;;
70796;SDS011;63842;52.144;5.360;2023-03-14T09:55:19;11.40;;;1.25;;
70796;SDS011;63842;52.144;5.360;2023-03-14T09:57:53;11.32;;;1.50;;
70796;SDS011;63842;52.144;5.360;2023-03-14T10:00:23;12.48;;;1.60;;
70796;SDS011;63842;52.144;5.360;2023-03-14T10:02:55;16.38;;;1.77;;
70796;SDS011;63842;52.144;5.360;2023-03-14T10:05:24;9.68;;;1.33;;
70796;SDS011;63842;52.144;5.360;2023-03-14T10:07:51;8.00;;;1.20;;
70796;SDS011;63842;52.144;5.360;2023-03-14T10:10:20;8.27;;;1.30;;
70796;SDS011;63842;52.144;5.360;2023-03-14T10:12:54;11.48;;;1.42;;
70796;SDS011;63842;52.144;5.360;2023-03-14T10:15:26;11.88;;;1.35;;
70796;SDS011;63842;52.144;5.360;2023-03-14T10:17:54;14.93;;;2.08;;
70796;SDS011;63842;52.144;5.360;2023-03-14T10:20:35;10.63;;;1.42;;
70796;SDS011;63842;52.144;5.360;2023-03-14T10:25:43;13.38;;;1.73;;
70796;SDS011;63842;52.144;5.360;2023-03-14T10:28:24;13.23;;;2.42;;
70796;SDS011;63842;52.144;5.360;2023-03-14T10:30:52;10.77;;;2.03;;
70796;SDS011;63842;52.144;5.360;2023-03-14T10:33:21;12.05;;;1.38;;
70796;SDS011;63842;52.144;5.360;2023-03-14T10:35:56;12.38;;;1.70;;
70796;SDS011;63842;52.144;5.360;2023-03-14T10:38:29;11.43;;;1.75;;
70796;SDS011;63842;52.144;5.360;2023-03-14T10:40:56;14.70;;;1.63;;
70796;SDS011;63842;52.144;5.360;2023-03-14T10:43:25;13.25;;;1.80;;
70796;SDS011;63842;52.144;5.360;2023-03-14T10:45:54;14.57;;;1.80;;
70796;SDS011;63842;52.144;5.360;2023-03-14T10:48:29;13.20;;;1.60;;
70796;SDS011;63842;52.144;5.360;2023-03-14T10:51:05;13.32;;;1.80;;
70796;SDS011;63842;52.144;5.360;2023-03-14T10:53:42;18.08;;;1.92;;
70796;SDS011;63842;52.144;5.360;2023-03-14T10:56:14;12.43;;;1.70;;
70796;SDS011;63842;52.144;5.360;2023-03-14T10:58:43;14.73;;;2.13;;
70796;SDS011;63842;52.144;5.360;2023-03-14T11:03:43;13.70;;;2.00;;
70796;SDS011;63842;52.144;5.360;2023-03-14T11:06:12;14.10;;;1.77;;
70796;SDS011;63842;52.144;5.360;2023-03-14T11:11:19;14.50;;;2.40;;
70796;SDS011;63842;52.144;5.360;2023-03-14T11:16:22;13.73;;;1.50;;
70796;SDS011;63842;52.144;5.360;2023-03-14T11:19:10;11.95;;;1.50;;
70796;SDS011;63842;52.144;5.360;2023-03-14T11:27:15;11.85;;;1.70;;
70796;SDS011;63842;52.144;5.360;2023-03-14T11:29:50;9.57;;;1.58;;
70796;SDS011;63842;52.144;5.360;2023-03-14T11:34:52;10.95;;;1.48;;
70796;SDS011;63842;52.144;5.360;2023-03-14T11:39:54;13.38;;;1.67;;
70796;SDS011;63842;52.144;5.360;2023-03-14T11:42:23;12.98;;;2.33;;
70796;SDS011;63842;52.144;5.360;2023-03-14T11:44:50;8.70;;;1.45;;
70796;SDS011;63842;52.144;5.360;2023-03-14T11:47:20;11.70;;;1.50;;
70796;SDS011;63842;52.144;5.360;2023-03-14T11:49:58;6.00;;;1.20;;
70796;SDS011;63842;52.144;5.360;2023-03-14T11:55:12;9.23;;;1.70;;
70796;SDS011;63842;52.144;5.360;2023-03-14T11:57:42;10.30;;;1.30;;
70796;SDS011;63842;52.144;5.360;2023-03-14T12:00:16;8.30;;;1.40;;
70796;SDS011;63842;52.144;5.360;2023-03-14T12:03:09;6.68;;;1.08;;
70796;SDS011;63842;52.144;5.360;2023-03-14T12:05:44;8.20;;;1.40;;
70796;SDS011;63842;52.144;5.360;2023-03-14T12:08:22;7.55;;;1.45;;
70796;SDS011;63842;52.144;5.360;2023-03-14T12:10:53;6.85;;;0.90;;
70796;SDS011;63842;52.144;5.360;2023-03-14T12:13:21;6.95;;;0.90;;
70796;SDS011;63842;52.144;5.360;2023-03-14T12:15:50;10.20;;;1.58;;
70796;SDS011;63842;52.144;5.360;2023-03-14T12:20:55;8.00;;;1.10;;
70796;SDS011;63842;52.144;5.360;2023-03-14T12:31:47;7.28;;;1.40;;
70796;SDS011;63842;52.144;5.360;2023-03-14T12:42:05;11.15;;;1.42;;
70796;SDS011;63842;52.144;5.360;2023-03-14T12:44:39;11.10;;;1.50;;
70796;SDS011;63842;52.144;5.360;2023-03-14T12:49:44;5.55;;;1.15;;
70796;SDS011;63842;52.144;5.360;2023-03-14T12:52:15;5.38;;;1.10;;
70796;SDS011;63842;52.144;5.360;2023-03-14T12:54:44;7.75;;;0.93;;
70796;SDS011;63842;52.144;5.360;2023-03-14T13:00:00;9.75;;;1.05;;
70796;SDS011;63842;52.144;5.360;2023-03-14T13:02:42;6.22;;;1.00;;
70796;SDS011;63842;52.144;5.360;2023-03-14T13:05:24;4.85;;;1.02;;
70796;SDS011;63842;52.144;5.360;2023-03-14T13:12:51;7.70;;;1.05;;
70796;SDS011;63842;52.144;5.360;2023-03-14T13:15:31;4.53;;;0.90;;
70796;SDS011;63842;52.144;5.360;2023-03-14T13:18:03;7.38;;;0.88;;
70796;SDS011;63842;52.144;5.360;2023-03-14T13:20:46;7.03;;;0.77;;
70796;SDS011;63842;52.144;5.360;2023-03-14T13:23:23;8.70;;;1.20;;
70796;SDS011;63842;52.144;5.360;2023-03-14T13:25:50;5.05;;;0.98;;
70796;SDS011;63842;52.144;5.360;2023-03-14T13:28:18;8.32;;;1.33;;
70796;SDS011;63842;52.144;5.360;2023-03-14T13:30:46;3.60;;;0.82;;
70796;SDS011;63842;52.144;5.360;2023-03-14T13:33:18;5.18;;;1.05;;
70796;SDS011;63842;52.144;5.360;2023-03-14T13:35:47;6.32;;;1.10;;
70796;SDS011;63842;52.144;5.360;2023-03-14T13:38:15;9.90;;;1.23;;
70796;SDS011;63842;52.144;5.360;2023-03-14T13:40:43;6.53;;;1.23;;
70796;SDS011;63842;52.144;5.360;2023-03-14T13:43:15;8.55;;;0.93;;
70796;SDS011;63842;52.144;5.360;2023-03-14T13:45:44;6.68;;;1.00;;
70796;SDS011;63842;52.144;5.360;2023-03-14T13:48:11;5.43;;;1.00;;
70796;SDS011;63842;52.144;5.360;2023-03-14T13:53:10;5.05;;;1.00;;
70796;SDS011;63842;52.144;5.360;2023-03-14T13:55:38;5.40;;;0.90;;
70796;SDS011;63842;52.144;5.360;2023-03-14T13:58:10;7.78;;;1.15;;
70796;SDS011;63842;52.144;5.360;2023-03-14T14:00:38;9.05;;;1.02;;
70796;SDS011;63842;52.144;5.360;2023-03-14T14:03:08;13.07;;;1.45;;
70796;SDS011;63842;52.144;5.360;2023-03-14T14:05:37;11.10;;;1.25;;
70796;SDS011;63842;52.144;5.360;2023-03-14T14:08:10;9.93;;;1.38;;
70796;SDS011;63842;52.144;5.360;2023-03-14T14:10:37;9.93;;;1.20;;
70796;SDS011;63842;52.144;5.360;2023-03-14T14:13:06;9.20;;;1.42;;
70796;SDS011;63842;52.144;5.360;2023-03-14T14:15:37;8.18;;;1.30;;
70796;SDS011;63842;52.144;5.360;2023-03-14T14:18:10;10.23;;;1.15;;
70796;SDS011;63842;52.144;5.360;2023-03-14T14:23:09;10.38;;;1.20;;
70796;SDS011;63842;52.144;5.360;2023-03-14T14:25:37;9.50;;;1.10;;
70796;SDS011;63842;52.144;5.360;2023-03-14T14:28:15;9.57;;;1.10;;
70796;SDS011;63842;52.144;5.360;2023-03-14T14:30:42;7.43;;;1.35;;
70796;SDS011;63842;52.144;5.360;2023-03-14T14:33:18;6.32;;;1.23;;
70796;SDS011;63842;52.144;5.360;2023-03-14T14:35:49;5.53;;;0.95;;
70796;SDS011;63842;52.144;5.360;2023-03-14T14:38:17;4.78;;;0.75;;
70796;SDS011;63842;52.144;5.360;2023-03-14T14:40:50;7.22;;;0.82;;
70796;SDS011;63842;52.144;5.360;2023-03-14T14:43:22;5.43;;;0.80;;
70796;SDS011;63842;52.144;5.360;2023-03-14T14:45:51;8.18;;;1.27;;
70796;SDS011;63842;52.144;5.360;2023-03-14T14:48:20;10.90;;;1.23;;
70796;SDS011;63842;52.144;5.360;2023-03-14T14:51:04;11.48;;;1.40;;
70796;SDS011;63842;52.144;5.360;2023-03-14T14:53:37;6.70;;;1.13;;
70796;SDS011;63842;52.144;5.360;2023-03-14T14:56:18;4.55;;;1.00;;
70796;SDS011;63842;52.144;5.360;2023-03-14T14:58:48;6.72;;;0.80;;
70796;SDS011;63842;52.144;5.360;2023-03-14T15:01:17;6.45;;;1.00;;
70796;SDS011;63842;52.144;5.360;2023-03-14T15:03:45;4.63;;;0.93;;
70796;SDS011;63842;52.144;5.360;2023-03-14T15:06:13;4.20;;;1.00;;
70796;SDS011;63842;52.144;5.360;2023-03-14T15:08:47;3.92;;;0.88;;
70796;SDS011;63842;52.144;5.360;2023-03-14T15:11:22;5.70;;;0.80;;
70796;SDS011;63842;52.144;5.360;2023-03-14T15:13:50;5.57;;;1.17;;
70796;SDS011;63842;52.144;5.360;2023-03-14T15:16:18;8.13;;;3.05;;
70796;SDS011;63842;52.144;5.360;2023-03-14T15:18:48;7.63;;;1.77;;
70796;SDS011;63842;52.144;5.360;2023-03-14T15:21:16;6.88;;;1.30;;
70796;SDS011;63842;52.144;5.360;2023-03-14T15:23:43;7.90;;;1.45;;
70796;SDS011;63842;52.144;5.360;2023-03-14T15:26:11;8.35;;;1.30;;
70796;SDS011;63842;52.144;5.360;2023-03-14T15:28:40;3.60;;;0.80;;
70796;SDS011;63842;52.144;5.360;2023-03-14T15:31:08;6.93;;;1.08;;
70796;SDS011;63842;52.144;5.360;2023-03-14T15:33:36;8.27;;;1.20;;
70796;SDS011;63842;52.144;5.360;2023-03-14T15:36:04;4.30;;;0.90;;
70796;SDS011;63842;52.144;5.360;2023-03-14T15:38:31;6.30;;;0.93;;
70796;SDS011;63842;52.144;5.360;2023-03-14T15:40:58;7.75;;;0.95;;
70796;SDS011;63842;52.144;5.360;2023-03-14T15:43:26;5.35;;;1.00;;
70796;SDS011;63842;52.144;5.360;2023-03-14T15:45:53;3.22;;;0.85;;
70796;SDS011;63842;52.144;5.360;2023-03-14T15:48:22;5.90;;;1.00;;
70796;SDS011;63842;52.144;5.360;2023-03-14T15:50:49;5.63;;;0.90;;
70796;SDS011;63842;52.144;5.360;2023-03-14T15:53:16;6.25;;;1.02;;
70796;SDS011;63842;52.144;5.360;2023-03-14T15:55:44;8.00;;;0.90;;
70796;SDS011;63842;52.144;5.360;2023-03-14T15:58:15;5.43;;;1.02;;
70796;SDS011;63842;52.144;5.360;2023-03-14T16:00:46;5.95;;;1.05;;
70796;SDS011;63842;52.144;5.360;2023-03-14T16:03:14;7.55;;;1.30;;
70796;SDS011;63842;52.144;5.360;2023-03-14T16:05:41;6.95;;;1.63;;
70796;SDS011;63842;52.144;5.360;2023-03-14T16:08:08;7.43;;;1.10;;
70796;SDS011;63842;52.144;5.360;2023-03-14T16:10:36;7.35;;;0.98;;
70796;SDS011;63842;52.144;5.360;2023-03-14T16:13:04;7.22;;;1.20;;
70796;SDS011;63842;52.144;5.360;2023-03-14T16:15:32;4.20;;;1.05;;